Swain, NY (14884)

7:35 AM EDT on August 31, 2015 (GMT -0400)
Swain | | Change Station
CLOSE
Current Station
Personal Weather Station
Location: Swain, NY
Elevation: 1706 ft
Nearby Weather Stations

Elev 1706 ft 42.48 °N, 77.86 °W | Updated 11 seconds ago

Clear
Clear
67.3 °F
Feels Like 67.3 °F
N
3.0
Wind Variable Wind from SW
Gusts 4.0 mph

Today
High -- | Low -- °F
--% Chance of Precip.
Yesterday
High -- | Low -- °F
Precip. -- in
6:35 AM 7:47 PM
Waning Gibbous, 96% visible
Pressure 30.06 in
Visibility 9.0 miles
Clouds Few 9000 ft
Dew Point 66 °F
Humidity 95%
Rainfall 0.00 in
Snow Depth Not available.
UV 0 out of 12
Pollen 10.80 out of 12
Air Quality Not available.
Flu Activity Not available.
METAR KDSV 311054Z AUTO 14008KT 9SM FEW090 18/17 A3004 RMK AO2 SLP179 T01830167 $
Pressure 30.06 in
Visibility 9.0 miles
Clouds Few 9000 ft
Dew Point 66 °F
Humidity 95%
Rainfall 0.00 in
Snow Depth Not available.
UV 0 out of 12
Pollen 10.80 out of 12
Air Quality Not available.
Flu Activity Not available.
METAR KDSV 311054Z AUTO 14008KT 9SM FEW090 18/17 A3004 RMK AO2 SLP179 T01830167 $

10-Day Weather Forecast

×

Almanac

Astronomy

Aug. 31, 2015 Rise Set
Actual Time
Civil Twilight
Nautical Twilight
Astronomical Twilight
Moon
Length of Visible Light
Length of Day
Tomorrow will be .
, % of the Moon is Illuminated

Today's Extremes

State Highs State Lows

Community

WunderPhotos

Upload Photos

1,851,219 photos uploaded!

WunderBlogs® & News

Nearby

Air Quality

  Air Quality AQ Index Pollutant
Not available.

Snow Depth

Station Depth Elevation

Earthquake Activity

City Distance Mag. Time & Date
Minimum magnitude displayed is 2.5.

Coastal Water Temperatures

Place Temperature

Stations

Nearby Weather Stations

Station Location Temp. Windchill Dew Point Humidity Wind Precip. Elev Updated Type